sensor_id;sensor_type;location;lat;lon;timestamp;pressure;altitude;pressure_sealevel;temperature;humidity
43071;BME280;36278;47.952;21.714;2023-05-23T00:02:13;100062.47;;;16.59;72.36
43071;BME280;36278;47.952;21.714;2023-05-23T00:04:40;100063.78;;;16.54;72.37
43071;BME280;36278;47.952;21.714;2023-05-23T00:07:07;100068.44;;;16.52;72.85
43071;BME280;36278;47.952;21.714;2023-05-23T00:09:32;100069.94;;;16.47;72.91
43071;BME280;36278;47.952;21.714;2023-05-23T00:11:58;100073.91;;;16.43;73.34
43071;BME280;36278;47.952;21.714;2023-05-23T00:14:24;100070.41;;;16.42;73.33
43071;BME280;36278;47.952;21.714;2023-05-23T00:16:50;100063.34;;;16.33;74.26
43071;BME280;36278;47.952;21.714;2023-05-23T00:19:16;100060.00;;;16.31;73.32
43071;BME280;36278;47.952;21.714;2023-05-23T00:21:42;100066.53;;;16.37;71.96
43071;BME280;36278;47.952;21.714;2023-05-23T00:24:08;100062.88;;;16.38;71.49
43071;BME280;36278;47.952;21.714;2023-05-23T00:26:35;100068.72;;;16.41;71.48
43071;BME280;36278;47.952;21.714;2023-05-23T00:29:00;100061.03;;;16.38;72.25
43071;BME280;36278;47.952;21.714;2023-05-23T00:31:26;100055.66;;;16.30;73.14
43071;BME280;36278;47.952;21.714;2023-05-23T00:33:52;100069.69;;;16.32;73.60
43071;BME280;36278;47.952;21.714;2023-05-23T00:36:17;100067.03;;;16.32;72.91
43071;BME280;36278;47.952;21.714;2023-05-23T00:38:43;100064.84;;;16.36;71.84
43071;BME280;36278;47.952;21.714;2023-05-23T00:41:10;100065.19;;;16.33;71.72
43071;BME280;36278;47.952;21.714;2023-05-23T00:43:36;100066.47;;;16.29;71.64
43071;BME280;36278;47.952;21.714;2023-05-23T00:46:01;100060.47;;;16.26;71.72
43071;BME280;36278;47.952;21.714;2023-05-23T00:48:27;100058.91;;;16.16;71.68
43071;BME280;36278;47.952;21.714;2023-05-23T00:50:54;100055.69;;;16.12;72.80
43071;BME280;36278;47.952;21.714;2023-05-23T00:53:20;100067.25;;;16.13;72.60
43071;BME280;36278;47.952;21.714;2023-05-23T00:55:46;100066.25;;;16.14;71.76
43071;BME280;36278;47.952;21.714;2023-05-23T00:58:12;100070.44;;;16.16;71.59
43071;BME280;36278;47.952;21.714;2023-05-23T01:00:40;100077.44;;;16.17;71.75
43071;BME280;36278;47.952;21.714;2023-05-23T01:03:06;100076.78;;;16.15;71.66
43071;BME280;36278;47.952;21.714;2023-05-23T01:05:32;100076.25;;;16.12;72.01
43071;BME280;36278;47.952;21.714;2023-05-23T01:07:57;100084.97;;;16.14;71.96
43071;BME280;36278;47.952;21.714;2023-05-23T01:10:28;100077.19;;;16.03;72.31
43071;BME280;36278;47.952;21.714;2023-05-23T01:13:12;100083.03;;;15.98;72.56
43071;BME280;36278;47.952;21.714;2023-05-23T01:16:05;100079.66;;;15.96;73.38
43071;BME280;36278;47.952;21.714;2023-05-23T01:21:13;100072.50;;;15.96;72.19
43071;BME280;36278;47.952;21.714;2023-05-23T01:29:45;100065.75;;;15.66;74.97
43071;BME280;36278;47.952;21.714;2023-05-23T01:32:13;100070.84;;;15.60;76.40
43071;BME280;36278;47.952;21.714;2023-05-23T01:34:40;100057.88;;;15.47;76.08
43071;BME280;36278;47.952;21.714;2023-05-23T01:37:10;100071.59;;;15.52;75.93
43071;BME280;36278;47.952;21.714;2023-05-23T01:39:38;100063.09;;;15.49;76.10
43071;BME280;36278;47.952;21.714;2023-05-23T01:42:04;100070.59;;;15.53;76.24
43071;BME280;36278;47.952;21.714;2023-05-23T01:44:32;100069.16;;;15.59;75.25
43071;BME280;36278;47.952;21.714;2023-05-23T01:46:58;100062.69;;;15.61;75.45
43071;BME280;36278;47.952;21.714;2023-05-23T01:49:25;100069.00;;;15.60;75.06
43071;BME280;36278;47.952;21.714;2023-05-23T01:51:51;100080.59;;;15.51;76.13
43071;BME280;36278;47.952;21.714;2023-05-23T01:54:17;100076.19;;;15.42;76.31
43071;BME280;36278;47.952;21.714;2023-05-23T01:56:43;100080.38;;;15.45;75.83
43071;BME280;36278;47.952;21.714;2023-05-23T01:59:10;100079.94;;;15.31;76.39
43071;BME280;36278;47.952;21.714;2023-05-23T02:01:36;100087.00;;;15.23;76.02
43071;BME280;36278;47.952;21.714;2023-05-23T02:04:03;100081.66;;;15.23;76.27
43071;BME280;36278;47.952;21.714;2023-05-23T02:06:28;100085.13;;;15.33;76.00
43071;BME280;36278;47.952;21.714;2023-05-23T02:08:54;100082.13;;;15.36;75.43
43071;BME280;36278;47.952;21.714;2023-05-23T02:11:19;100083.72;;;15.29;77.07
43071;BME280;36278;47.952;21.714;2023-05-23T02:13:46;100074.66;;;15.22;77.33
43071;BME280;36278;47.952;21.714;2023-05-23T02:16:11;100073.72;;;15.13;76.50
43071;BME280;36278;47.952;21.714;2023-05-23T02:18:38;100073.56;;;15.14;76.76
43071;BME280;36278;47.952;21.714;2023-05-23T02:21:04;100077.78;;;15.17;76.22
43071;BME280;36278;47.952;21.714;2023-05-23T02:23:30;100079.97;;;15.04;78.02
43071;BME280;36278;47.952;21.714;2023-05-23T02:25:55;100075.22;;;14.98;77.87
43071;BME280;36278;47.952;21.714;2023-05-23T02:28:21;100072.72;;;14.96;77.84
43071;BME280;36278;47.952;21.714;2023-05-23T02:30:46;100079.59;;;14.99;77.98
43071;BME280;36278;47.952;21.714;2023-05-23T02:33:12;100064.72;;;14.96;77.85
43071;BME280;36278;47.952;21.714;2023-05-23T02:35:38;100077.63;;;15.01;78.04
43071;BME280;36278;47.952;21.714;2023-05-23T02:38:03;100074.13;;;15.00;78.49
43071;BME280;36278;47.952;21.714;2023-05-23T02:40:29;100074.19;;;14.91;80.19
43071;BME280;36278;47.952;21.714;2023-05-23T02:42:54;100066.94;;;14.83;79.97
43071;BME280;36278;47.952;21.714;2023-05-23T02:45:22;100061.34;;;14.76;80.55
43071;BME280;36278;47.952;21.714;2023-05-23T02:47:47;100067.84;;;14.64;80.98
43071;BME280;36278;47.952;21.714;2023-05-23T02:50:13;100071.25;;;14.56;80.90
43071;BME280;36278;47.952;21.714;2023-05-23T02:52:38;100070.31;;;14.48;81.96
43071;BME280;36278;47.952;21.714;2023-05-23T02:55:04;100072.81;;;14.49;81.89
43071;BME280;36278;47.952;21.714;2023-05-23T02:57:30;100073.53;;;14.51;81.91
43071;BME280;36278;47.952;21.714;2023-05-23T02:59:55;100073.91;;;14.56;81.46
43071;BME280;36278;47.952;21.714;2023-05-23T03:02:21;100069.88;;;14.52;81.36
43071;BME280;36278;47.952;21.714;2023-05-23T03:04:46;100069.59;;;14.55;81.66
43071;BME280;36278;47.952;21.714;2023-05-23T03:07:12;100065.41;;;14.53;81.73
43071;BME280;36278;47.952;21.714;2023-05-23T03:09:39;100072.81;;;14.59;81.66
43071;BME280;36278;47.952;21.714;2023-05-23T03:12:05;100064.34;;;14.64;81.92
43071;BME280;36278;47.952;21.714;2023-05-23T03:14:30;100058.03;;;14.65;81.26
43071;BME280;36278;47.952;21.714;2023-05-23T03:16:56;100065.44;;;14.71;80.93
43071;BME280;36278;47.952;21.714;2023-05-23T03:19:22;100057.59;;;14.69;81.62
43071;BME280;36278;47.952;21.714;2023-05-23T03:21:48;100059.38;;;14.78;81.52
43071;BME280;36278;47.952;21.714;2023-05-23T03:24:15;100062.88;;;14.79;80.95
43071;BME280;36278;47.952;21.714;2023-05-23T03:26:40;100053.34;;;14.76;82.27
43071;BME280;36278;47.952;21.714;2023-05-23T03:29:06;100056.59;;;14.70;82.62
43071;BME280;36278;47.952;21.714;2023-05-23T03:31:31;100059.06;;;14.81;82.13
43071;BME280;36278;47.952;21.714;2023-05-23T03:33:56;100064.16;;;14.75;82.50
43071;BME280;36278;47.952;21.714;2023-05-23T03:36:22;100066.53;;;14.78;82.69
43071;BME280;36278;47.952;21.714;2023-05-23T03:38:51;100068.28;;;14.87;82.06
43071;BME280;36278;47.952;21.714;2023-05-23T03:41:17;100066.41;;;14.97;81.45
43071;BME280;36278;47.952;21.714;2023-05-23T03:43:43;100059.47;;;15.04;81.01
43071;BME280;36278;47.952;21.714;2023-05-23T03:46:08;100062.16;;;15.22;80.44
43071;BME280;36278;47.952;21.714;2023-05-23T03:48:34;100059.03;;;15.27;79.61
43071;BME280;36278;47.952;21.714;2023-05-23T03:50:59;100057.53;;;15.24;80.76
43071;BME280;36278;47.952;21.714;2023-05-23T03:53:24;100059.34;;;15.24;79.56
43071;BME280;36278;47.952;21.714;2023-05-23T03:55:50;100060.72;;;15.28;78.94
43071;BME280;36278;47.952;21.714;2023-05-23T03:58:18;100055.75;;;15.33;77.83
43071;BME280;36278;47.952;21.714;2023-05-23T04:00:44;100059.94;;;15.35;78.22
43071;BME280;36278;47.952;21.714;2023-05-23T04:03:10;100053.69;;;15.45;78.04
43071;BME280;36278;47.952;21.714;2023-05-23T04:05:38;100050.47;;;15.59;77.81
43071;BME280;36278;47.952;21.714;2023-05-23T04:08:04;100044.00;;;15.61;77.77
43071;BME280;36278;47.952;21.714;2023-05-23T04:10:29;100050.09;;;15.72;77.39
43071;BME280;36278;47.952;21.714;2023-05-23T04:12:55;100053.91;;;15.69;77.84
43071;BME280;36278;47.952;21.714;2023-05-23T04:15:21;100047.75;;;15.68;79.45
43071;BME280;36278;47.952;21.714;2023-05-23T04:17:46;100052.09;;;15.69;76.29
43071;BME280;36278;47.952;21.714;2023-05-23T04:20:11;100055.81;;;15.77;74.72
43071;BME280;36278;47.952;21.714;2023-05-23T04:22:37;100054.88;;;15.86;73.10
43071;BME280;36278;47.952;21.714;2023-05-23T04:25:03;100050.91;;;15.90;74.41
43071;BME280;36278;47.952;21.714;2023-05-23T04:27:29;100056.47;;;15.96;73.43
43071;BME280;36278;47.952;21.714;2023-05-23T04:29:55;100059.66;;;16.00;71.91
43071;BME280;36278;47.952;21.714;2023-05-23T04:32:22;100058.53;;;16.11;70.40
43071;BME280;36278;47.952;21.714;2023-05-23T04:34:48;100043.50;;;16.10;70.47
43071;BME280;36278;47.952;21.714;2023-05-23T04:37:14;100059.59;;;16.18;69.90
43071;BME280;36278;47.952;21.714;2023-05-23T04:39:41;100059.16;;;16.31;69.65
43071;BME280;36278;47.952;21.714;2023-05-23T04:42:07;100055.88;;;16.45;68.63
43071;BME280;36278;47.952;21.714;2023-05-23T04:44:32;100052.22;;;16.46;69.04
43071;BME280;36278;47.952;21.714;2023-05-23T04:46:58;100057.75;;;16.52;69.38
43071;BME280;36278;47.952;21.714;2023-05-23T04:49:23;100046.59;;;16.65;69.09
43071;BME280;36278;47.952;21.714;2023-05-23T04:51:49;100041.66;;;16.70;69.32
43071;BME280;36278;47.952;21.714;2023-05-23T04:54:15;100045.19;;;16.79;68.17
43071;BME280;36278;47.952;21.714;2023-05-23T04:56:40;100047.88;;;16.79;68.87
43071;BME280;36278;47.952;21.714;2023-05-23T04:59:06;100039.69;;;16.89;67.86
43071;BME280;36278;47.952;21.714;2023-05-23T05:01:33;100050.03;;;16.84;66.71
43071;BME280;36278;47.952;21.714;2023-05-23T05:04:04;100047.22;;;16.93;66.62
43071;BME280;36278;47.952;21.714;2023-05-23T05:06:29;100045.41;;;17.10;65.51
43071;BME280;36278;47.952;21.714;2023-05-23T05:08:55;100051.44;;;17.12;64.94
43071;BME280;36278;47.952;21.714;2023-05-23T05:11:21;100046.28;;;17.19;64.54
43071;BME280;36278;47.952;21.714;2023-05-23T05:13:46;100038.41;;;17.25;64.49
43071;BME280;36278;47.952;21.714;2023-05-23T05:16:12;100041.44;;;17.30;64.33
43071;BME280;36278;47.952;21.714;2023-05-23T05:18:38;100042.63;;;17.36;64.72
43071;BME280;36278;47.952;21.714;2023-05-23T05:21:03;100038.28;;;17.51;64.14
43071;BME280;36278;47.952;21.714;2023-05-23T05:23:30;100044.78;;;17.57;64.87
43071;BME280;36278;47.952;21.714;2023-05-23T05:25:56;100045.13;;;17.62;64.45
43071;BME280;36278;47.952;21.714;2023-05-23T05:28:21;100050.47;;;17.62;65.02
43071;BME280;36278;47.952;21.714;2023-05-23T05:30:47;100045.47;;;17.75;63.05
43071;BME280;36278;47.952;21.714;2023-05-23T05:33:18;100049.00;;;17.92;62.92
43071;BME280;36278;47.952;21.714;2023-05-23T05:35:44;100045.59;;;18.06;62.89
43071;BME280;36278;47.952;21.714;2023-05-23T05:38:10;100042.72;;;18.16;62.76
43071;BME280;36278;47.952;21.714;2023-05-23T05:40:35;100041.53;;;18.27;62.87
43071;BME280;36278;47.952;21.714;2023-05-23T05:43:01;100047.34;;;18.38;61.63
43071;BME280;36278;47.952;21.714;2023-05-23T05:45:26;100051.34;;;18.51;60.97
43071;BME280;36278;47.952;21.714;2023-05-23T05:47:52;100058.16;;;18.61;60.37
43071;BME280;36278;47.952;21.714;2023-05-23T05:50:17;100057.31;;;18.69;60.25
43071;BME280;36278;47.952;21.714;2023-05-23T05:52:44;100050.56;;;18.73;59.36
43071;BME280;36278;47.952;21.714;2023-05-23T05:55:10;100051.22;;;18.83;59.45
43071;BME280;36278;47.952;21.714;2023-05-23T05:57:36;100054.19;;;18.88;59.69
43071;BME280;36278;47.952;21.714;2023-05-23T06:00:14;100055.66;;;18.99;58.39
43071;BME280;36278;47.952;21.714;2023-05-23T06:02:40;100061.25;;;19.12;58.79
43071;BME280;36278;47.952;21.714;2023-05-23T06:05:08;100051.03;;;19.16;58.55
43071;BME280;36278;47.952;21.714;2023-05-23T06:07:39;100051.63;;;19.26;58.38
43071;BME280;36278;47.952;21.714;2023-05-23T06:10:05;100049.53;;;19.36;58.16
43071;BME280;36278;47.952;21.714;2023-05-23T06:12:32;100044.84;;;19.30;58.82
43071;BME280;36278;47.952;21.714;2023-05-23T06:14:58;100053.72;;;19.16;60.53
43071;BME280;36278;47.952;21.714;2023-05-23T06:17:23;100057.41;;;19.15;61.40
43071;BME280;36278;47.952;21.714;2023-05-23T06:19:50;100062.41;;;19.18;62.47
43071;BME280;36278;47.952;21.714;2023-05-23T06:22:15;100064.78;;;19.13;60.50
43071;BME280;36278;47.952;21.714;2023-05-23T06:24:41;100066.78;;;19.42;60.11
43071;BME280;36278;47.952;21.714;2023-05-23T06:27:06;100061.09;;;19.37;60.75
43071;BME280;36278;47.952;21.714;2023-05-23T06:29:31;100060.19;;;19.44;60.76
43071;BME280;36278;47.952;21.714;2023-05-23T06:31:57;100063.56;;;19.69;59.24
43071;BME280;36278;47.952;21.714;2023-05-23T06:34:22;100065.66;;;19.59;58.79
43071;BME280;36278;47.952;21.714;2023-05-23T06:36:48;100065.72;;;19.74;59.35
43071;BME280;36278;47.952;21.714;2023-05-23T06:39:14;100072.78;;;19.90;58.88
43071;BME280;36278;47.952;21.714;2023-05-23T06:41:39;100072.91;;;20.11;58.46
43071;BME280;36278;47.952;21.714;2023-05-23T06:44:05;100062.91;;;20.05;58.93
43071;BME280;36278;47.952;21.714;2023-05-23T06:46:30;100061.22;;;19.89;59.08
43071;BME280;36278;47.952;21.714;2023-05-23T06:48:56;100068.97;;;19.84;59.42
43071;BME280;36278;47.952;21.714;2023-05-23T06:51:22;100071.50;;;20.00;58.81
43071;BME280;36278;47.952;21.714;2023-05-23T06:53:47;100070.78;;;20.06;59.84
43071;BME280;36278;47.952;21.714;2023-05-23T06:56:13;100070.41;;;20.09;59.32
43071;BME280;36278;47.952;21.714;2023-05-23T06:58:38;100065.78;;;20.18;59.44
43071;BME280;36278;47.952;21.714;2023-05-23T07:01:04;100074.44;;;20.28;63.46
43071;BME280;36278;47.952;21.714;2023-05-23T07:03:30;100073.22;;;20.60;62.14
43071;BME280;36278;47.952;21.714;2023-05-23T07:05:56;100068.13;;;20.65;62.87
43071;BME280;36278;47.952;21.714;2023-05-23T07:08:22;100067.47;;;20.78;61.83
43071;BME280;36278;47.952;21.714;2023-05-23T07:10:48;100066.34;;;20.87;60.16
43071;BME280;36278;47.952;21.714;2023-05-23T07:13:14;100061.69;;;20.81;60.98
43071;BME280;36278;47.952;21.714;2023-05-23T07:15:39;100061.72;;;20.66;62.20
43071;BME280;36278;47.952;21.714;2023-05-23T07:18:05;100067.28;;;20.50;61.91
43071;BME280;36278;47.952;21.714;2023-05-23T07:20:32;100056.41;;;20.73;61.52
43071;BME280;36278;47.952;21.714;2023-05-23T07:22:58;100059.41;;;20.99;61.11
43071;BME280;36278;47.952;21.714;2023-05-23T07:25:25;100058.97;;;21.32;59.36
43071;BME280;36278;47.952;21.714;2023-05-23T07:27:51;100051.94;;;21.52;58.05
43071;BME280;36278;47.952;21.714;2023-05-23T07:30:19;100052.03;;;21.66;57.98
43071;BME280;36278;47.952;21.714;2023-05-23T07:32:47;100051.94;;;21.52;58.57
43071;BME280;36278;47.952;21.714;2023-05-23T07:35:14;100058.28;;;21.45;59.35
43071;BME280;36278;47.952;21.714;2023-05-23T07:37:39;100054.91;;;21.64;58.50
43071;BME280;36278;47.952;21.714;2023-05-23T07:40:07;100058.09;;;21.74;59.02
43071;BME280;36278;47.952;21.714;2023-05-23T07:42:35;100045.72;;;21.52;60.02
43071;BME280;36278;47.952;21.714;2023-05-23T07:45:02;100057.25;;;21.46;60.58
43071;BME280;36278;47.952;21.714;2023-05-23T07:47:27;100058.97;;;21.75;59.83
43071;BME280;36278;47.952;21.714;2023-05-23T07:49:53;100059.41;;;21.78;60.31
43071;BME280;36278;47.952;21.714;2023-05-23T07:52:19;100056.78;;;22.13;60.05
43071;BME280;36278;47.952;21.714;2023-05-23T07:54:45;100063.31;;;22.25;61.14
43071;BME280;36278;47.952;21.714;2023-05-23T07:57:11;100053.47;;;22.52;59.19
43071;BME280;36278;47.952;21.714;2023-05-23T07:59:37;100055.25;;;22.73;58.66
43071;BME280;36278;47.952;21.714;2023-05-23T08:02:03;100041.16;;;22.84;58.30
43071;BME280;36278;47.952;21.714;2023-05-23T08:04:29;100052.84;;;22.91;58.89
43071;BME280;36278;47.952;21.714;2023-05-23T08:06:56;100054.56;;;23.12;57.83
43071;BME280;36278;47.952;21.714;2023-05-23T08:09:25;100049.84;;;22.73;59.34
43071;BME280;36278;47.952;21.714;2023-05-23T08:11:51;100052.88;;;22.98;60.15
43071;BME280;36278;47.952;21.714;2023-05-23T08:14:16;100055.22;;;23.14;59.52
43071;BME280;36278;47.952;21.714;2023-05-23T08:16:42;100048.78;;;23.29;58.46
43071;BME280;36278;47.952;21.714;2023-05-23T08:19:07;100041.53;;;23.42;59.07
43071;BME280;36278;47.952;21.714;2023-05-23T08:21:35;100052.97;;;23.58;59.24
43071;BME280;36278;47.952;21.714;2023-05-23T08:24:00;100053.22;;;23.69;57.97
43071;BME280;36278;47.952;21.714;2023-05-23T08:26:26;100053.41;;;23.61;58.37
43071;BME280;36278;47.952;21.714;2023-05-23T08:28:59;100047.59;;;23.77;58.80
43071;BME280;36278;47.952;21.714;2023-05-23T08:31:25;100051.97;;;23.85;58.57
43071;BME280;36278;47.952;21.714;2023-05-23T08:33:51;100043.81;;;23.52;59.41
43071;BME280;36278;47.952;21.714;2023-05-23T08:36:17;100050.00;;;23.13;60.07
43071;BME280;36278;47.952;21.714;2023-05-23T08:38:42;100049.97;;;23.00;60.21
43071;BME280;36278;47.952;21.714;2023-05-23T08:41:18;100031.09;;;23.19;61.05
43071;BME280;36278;47.952;21.714;2023-05-23T08:43:44;100045.06;;;23.49;60.41
43071;BME280;36278;47.952;21.714;2023-05-23T08:46:11;100045.03;;;23.23;60.48
43071;BME280;36278;47.952;21.714;2023-05-23T08:48:37;100038.84;;;23.69;60.09
43071;BME280;36278;47.952;21.714;2023-05-23T08:51:04;100038.44;;;23.92;60.48
43071;BME280;36278;47.952;21.714;2023-05-23T08:53:30;100041.34;;;23.77;59.71
43071;BME280;36278;47.952;21.714;2023-05-23T08:55:58;100044.69;;;24.05;60.07
43071;BME280;36278;47.952;21.714;2023-05-23T08:58:30;100040.91;;;24.13;59.12
43071;BME280;36278;47.952;21.714;2023-05-23T09:00:58;100036.28;;;24.40;59.39
43071;BME280;36278;47.952;21.714;2023-05-23T09:03:25;100030.81;;;24.60;59.86
43071;BME280;36278;47.952;21.714;2023-05-23T09:05:53;100036.28;;;24.92;59.18
43071;BME280;36278;47.952;21.714;2023-05-23T09:08:22;100028.09;;;25.11;58.00
43071;BME280;36278;47.952;21.714;2023-05-23T09:10:53;100023.97;;;25.34;56.86
43071;BME280;36278;47.952;21.714;2023-05-23T09:13:19;100030.84;;;24.92;58.05
43071;BME280;36278;47.952;21.714;2023-05-23T09:18:26;100020.03;;;25.30;57.71
43071;BME280;36278;47.952;21.714;2023-05-23T09:20:52;100020.28;;;25.53;56.51
43071;BME280;36278;47.952;21.714;2023-05-23T09:23:18;100024.31;;;25.76;56.48
43071;BME280;36278;47.952;21.714;2023-05-23T09:25:47;100030.22;;;25.91;55.00
43071;BME280;36278;47.952;21.714;2023-05-23T09:28:13;100021.94;;;25.54;55.21
43071;BME280;36278;47.952;21.714;2023-05-23T09:30:38;100027.13;;;24.93;57.36
43071;BME280;36278;47.952;21.714;2023-05-23T09:33:04;100032.00;;;25.47;56.25
43071;BME280;36278;47.952;21.714;2023-05-23T09:35:30;100020.59;;;25.63;55.75
43071;BME280;36278;47.952;21.714;2023-05-23T09:37:57;100018.09;;;25.93;55.19
43071;BME280;36278;47.952;21.714;2023-05-23T09:40:29;100006.88;;;26.08;54.86
43071;BME280;36278;47.952;21.714;2023-05-23T09:43:03;100015.38;;;26.30;55.07
43071;BME280;36278;47.952;21.714;2023-05-23T09:45:30;100009.72;;;26.13;54.41
43071;BME280;36278;47.952;21.714;2023-05-23T09:47:56;100019.66;;;25.83;55.93
43071;BME280;36278;47.952;21.714;2023-05-23T09:50:23;100006.28;;;25.81;55.04
43071;BME280;36278;47.952;21.714;2023-05-23T09:52:50;100014.31;;;26.13;54.14
43071;BME280;36278;47.952;21.714;2023-05-23T09:55:19;100004.09;;;26.33;53.66
43071;BME280;36278;47.952;21.714;2023-05-23T09:57:47;100007.41;;;26.53;52.36
43071;BME280;36278;47.952;21.714;2023-05-23T10:00:15;99996.09;;;26.57;52.35
43071;BME280;36278;47.952;21.714;2023-05-23T10:08:00;99989.97;;;27.09;49.76
43071;BME280;36278;47.952;21.714;2023-05-23T10:10:30;99988.91;;;27.10;49.74
43071;BME280;36278;47.952;21.714;2023-05-23T10:13:04;99993.50;;;26.62;50.64
43071;BME280;36278;47.952;21.714;2023-05-23T10:15:37;99989.09;;;25.62;52.30
43071;BME280;36278;47.952;21.714;2023-05-23T10:18:11;99981.38;;;26.09;52.55
43071;BME280;36278;47.952;21.714;2023-05-23T10:20:42;99976.25;;;26.01;51.53
43071;BME280;36278;47.952;21.714;2023-05-23T10:23:12;99973.47;;;26.44;49.71
43071;BME280;36278;47.952;21.714;2023-05-23T10:25:38;99972.78;;;26.79;49.03
43071;BME280;36278;47.952;21.714;2023-05-23T10:28:05;99973.81;;;26.66;49.33
43071;BME280;36278;47.952;21.714;2023-05-23T10:30:31;99974.88;;;26.95;49.09
43071;BME280;36278;47.952;21.714;2023-05-23T10:32:59;99968.19;;;26.79;49.20
43071;BME280;36278;47.952;21.714;2023-05-23T10:35:49;99972.19;;;26.10;49.78
43071;BME280;36278;47.952;21.714;2023-05-23T10:38:56;99973.97;;;25.98;49.92
43071;BME280;36278;47.952;21.714;2023-05-23T10:41:27;99970.81;;;25.83;49.64
43071;BME280;36278;47.952;21.714;2023-05-23T10:49:19;99956.31;;;26.62;46.01
43071;BME280;36278;47.952;21.714;2023-05-23T10:51:49;99954.88;;;26.60;46.07
43071;BME280;36278;47.952;21.714;2023-05-23T10:54:18;99958.84;;;26.75;43.83
43071;BME280;36278;47.952;21.714;2023-05-23T10:56:47;99949.81;;;26.93;42.79
43071;BME280;36278;47.952;21.714;2023-05-23T10:59:27;99944.81;;;27.20;41.32
43071;BME280;36278;47.952;21.714;2023-05-23T11:01:54;99938.94;;;27.47;41.84
43071;BME280;36278;47.952;21.714;2023-05-23T11:04:27;99938.38;;;27.68;41.93
43071;BME280;36278;47.952;21.714;2023-05-23T11:06:54;99926.66;;;27.79;41.31
43071;BME280;36278;47.952;21.714;2023-05-23T11:09:21;99930.78;;;28.05;41.53
43071;BME280;36278;47.952;21.714;2023-05-23T11:14:32;99923.47;;;27.94;42.94
43071;BME280;36278;47.952;21.714;2023-05-23T11:19:37;99917.16;;;27.35;44.30
43071;BME280;36278;47.952;21.714;2023-05-23T11:22:06;99914.34;;;27.77;43.73
43071;BME280;36278;47.952;21.714;2023-05-23T11:30:00;99903.63;;;28.79;42.03
43071;BME280;36278;47.952;21.714;2023-05-23T11:32:30;99903.47;;;28.69;41.09
43071;BME280;36278;47.952;21.714;2023-05-23T11:35:04;99906.00;;;29.21;38.89
43071;BME280;36278;47.952;21.714;2023-05-23T11:37:30;99906.09;;;28.35;40.00
43071;BME280;36278;47.952;21.714;2023-05-23T11:39:57;99914.72;;;27.80;39.70
43071;BME280;36278;47.952;21.714;2023-05-23T11:42:22;99901.19;;;28.66;39.05
43071;BME280;36278;47.952;21.714;2023-05-23T11:44:49;99893.94;;;29.17;39.74
43071;BME280;36278;47.952;21.714;2023-05-23T11:47:16;99896.88;;;29.32;38.79
43071;BME280;36278;47.952;21.714;2023-05-23T11:49:44;99884.75;;;29.23;37.78
43071;BME280;36278;47.952;21.714;2023-05-23T11:52:11;99884.09;;;29.16;38.10
43071;BME280;36278;47.952;21.714;2023-05-23T11:54:39;99878.56;;;29.27;39.25
43071;BME280;36278;47.952;21.714;2023-05-23T11:57:06;99875.97;;;28.87;39.14
43071;BME280;36278;47.952;21.714;2023-05-23T11:59:32;99864.56;;;28.90;39.41
43071;BME280;36278;47.952;21.714;2023-05-23T12:01:58;99854.50;;;29.08;38.61
43071;BME280;36278;47.952;21.714;2023-05-23T12:04:26;99863.88;;;28.83;40.45
43071;BME280;36278;47.952;21.714;2023-05-23T12:06:52;99856.75;;;28.94;40.12
43071;BME280;36278;47.952;21.714;2023-05-23T12:09:18;99866.78;;;28.19;40.64
43071;BME280;36278;47.952;21.714;2023-05-23T12:11:44;99862.69;;;28.45;39.58
43071;BME280;36278;47.952;21.714;2023-05-23T12:14:17;99857.88;;;27.96;39.94
43071;BME280;36278;47.952;21.714;2023-05-23T12:16:45;99851.91;;;27.70;39.69
43071;BME280;36278;47.952;21.714;2023-05-23T12:19:15;99845.03;;;27.56;40.33
43071;BME280;36278;47.952;21.714;2023-05-23T12:21:42;99843.69;;;27.82;40.46
43071;BME280;36278;47.952;21.714;2023-05-23T12:26:57;99846.28;;;28.17;41.24
43071;BME280;36278;47.952;21.714;2023-05-23T12:29:30;99844.44;;;28.46;39.96
43071;BME280;36278;47.952;21.714;2023-05-23T12:32:01;99847.81;;;28.98;39.32
43071;BME280;36278;47.952;21.714;2023-05-23T12:34:27;99852.13;;;28.94;38.61
43071;BME280;36278;47.952;21.714;2023-05-23T12:36:56;99847.75;;;28.08;39.55
43071;BME280;36278;47.952;21.714;2023-05-23T12:39:27;99852.34;;;27.20;40.88
43071;BME280;36278;47.952;21.714;2023-05-23T12:42:05;99856.03;;;27.26;41.48
43071;BME280;36278;47.952;21.714;2023-05-23T12:44:32;99846.47;;;27.23;41.93
43071;BME280;36278;47.952;21.714;2023-05-23T12:46:58;99838.88;;;27.49;41.98
43071;BME280;36278;47.952;21.714;2023-05-23T12:49:24;99841.69;;;27.77;42.10
43071;BME280;36278;47.952;21.714;2023-05-23T12:51:50;99838.31;;;27.99;41.39
43071;BME280;36278;47.952;21.714;2023-05-23T12:54:16;99843.97;;;28.09;40.27
43071;BME280;36278;47.952;21.714;2023-05-23T12:56:42;99844.50;;;28.23;40.27
43071;BME280;36278;47.952;21.714;2023-05-23T12:59:08;99837.88;;;28.30;40.77
43071;BME280;36278;47.952;21.714;2023-05-23T13:01:34;99830.28;;;28.32;39.93
43071;BME280;36278;47.952;21.714;2023-05-23T13:04:00;99830.72;;;28.41;39.46
43071;BME280;36278;47.952;21.714;2023-05-23T13:06:27;99823.88;;;28.55;39.86
43071;BME280;36278;47.952;21.714;2023-05-23T13:08:53;99824.31;;;28.81;37.38
43071;BME280;36278;47.952;21.714;2023-05-23T13:11:20;99826.75;;;28.94;37.12
43071;BME280;36278;47.952;21.714;2023-05-23T13:13:47;99814.00;;;28.99;37.92
43071;BME280;36278;47.952;21.714;2023-05-23T13:16:14;99815.41;;;29.19;37.92
43071;BME280;36278;47.952;21.714;2023-05-23T13:18:41;99820.47;;;29.10;37.94